Manhattan, KS

12:00 PM CST on November 24, 2014 (GMT -0600)
Marshall Army Air Field | Change Station
CLOSE
Current Station
Airport
Location: Ft Riley,
Elevation: 1063 ft
Nearby Weather Stations

Elev 1063 ft 39.06 °N, 96.76 °W | Updated 2 minutes ago

Partly Cloudy
Partly Cloudy
38 °F
Feels Like 31 °F
N
12
Wind Variable Wind from NW
Gusts 21 mph

Today
High -- | Low -- °F
--% Chance of Precip.
Yesterday
High -- | Low -- °F
Precip. -- in
7:19 AM 5:06 PM
Waxing Crescent, 6% visible
Pressure 29.87 in
Visibility 10.0 miles
Clouds Clear
Windchill 31 °F
Dew Point 21 °F
Humidity 50%
Rainfall 0.00 in
Snow Depth Not available.
UV 3 out of 12
Pollen .10 out of 12
Air Quality Not available.
Flu Activity Not available.
METAR KFRI 241758Z AUTO 31010G18KT 10SM CLR 04/M06 A2985 RMK AO2 SLP113 T00351060 10038 20005 52023

More Conditions Fewer Conditions

Pressure 29.87 in
Visibility 10.0 miles
Clouds Clear
Windchill 31 °F
Dew Point 21 °F
Humidity 50%
Rainfall 0.00 in
Snow Depth Not available.
UV 3 out of 12
Pollen .10 out of 12
Air Quality Not available.
Flu Activity Not available.
METAR KFRI 241758Z AUTO 31010G18KT 10SM CLR 04/M06 A2985 RMK AO2 SLP113 T00351060 10038 20005 52023

More Conditions Fewer Conditions

10-Day Weather Forecast

Almanac

Astronomy

Nov. 24, 2014 Rise Set
Actual Time
Civil Twilight
Nautical Twilight
Astronomical Twilight
Moon
Length of Visible Light
Length of Day
Tomorrow will be .
, % of the Moon is Illuminated

Today's Extremes

State Highs State Lows

Community

WunderPhotos

Upload Photos

1,773,381 photos uploaded!

WunderBlogs® & News

Nearby

Air Quality

  Air Quality AQ Index Pollutant
Not available.

Snow Depth

Station Depth Elevation

Earthquake Activity

City Distance Mag. Time & Date
Minimum magnitude displayed is 2.5.

Coastal Water Temperatures

Place Temperature

Nearby Weather Stations